Loveland, CO (80537)

8:17 PM MDT on August 29, 2014 (GMT -0600)
Cattail Pond | Change Station
CLOSE
Current Station
Personal Weather Station
Location: Loveland, CO
Elevation: 5056 ft
Nearby Weather Stations

Elev 5056 ft 40.38 °N, 105.11 °W | Updated 4 minutes ago

Mostly Cloudy
Mostly Cloudy
64.0 °F
Feels Like 64.0 °F
N
0.0
Wind Variable Wind from SW

Today
High -- | Low -- °F
--% Chance of Precip.
Yesterday
High -- | Low -- °F
Precip. -- in
6:24 AM 7:36 PM
Waxing Crescent, 18% visible
Pressure 30.12 in
Visibility 10.0 miles
Clouds Clear
Dew Point 54 °F
Humidity 70%
Rainfall 0.00 in
Snow Depth Not available.
UV 0 out of 12
Pollen 10.40 out of 12
Ozone Good
PM2.5 Good
Flu Activity Not available.
METAR KFNL 300155Z AUTO 19007KT 10SM CLR 17/10 A3012 RMK AO1 LTG DSNT NE

More Conditions Fewer Conditions

Pressure 30.12 in
Visibility 10.0 miles
Clouds Clear
Dew Point 54 °F
Humidity 70%
Rainfall 0.00 in
Snow Depth Not available.
UV 0 out of 12
Pollen 10.40 out of 12
Ozone Good
PM2.5 Good
Flu Activity Not available.
METAR KFNL 300155Z AUTO 19007KT 10SM CLR 17/10 A3012 RMK AO1 LTG DSNT NE

More Conditions Fewer Conditions

10-Day Weather Forecast

Almanac

Astronomy

Aug. 29, 2014 Rise Set
Actual Time 6:24 AM MDT 7:36 PM MDT
Civil Twilight 5:56 AM MDT 8:04 PM MDT
Nautical Twilight 5:23 AM MDT 8:38 PM MDT
Astronomical Twilight 4:47 AM MDT 9:13 PM MDT
Moon 10:17 AM MDT (8/29) 9:35 PM MDT (8/29)
Length of Visible Light 14h 08m
Length of Day
13h 11m
Tomorrow will be 2m 32s shorter.
Waxing Crescent, 18% of the Moon is Illuminated
Today
Waxing Crescent
Sep 2
First Quarter
Sep 8
Full
Sep 15
Last Quarter
Sep 24
New

Today's Extremes

State Highs State Lows

Community

WunderPhotos

Upload Photos

1,748,405 photos uploaded!

Nearby

Air Quality

  Air Quality AQ Index Pollutant
Yesterday Good
OZONE
Yesterday Good
PM2.5
Current Good
PM2.5
Current Good
OZONE
Friday Good
PM2.5
Friday Good
OZONE
Saturday Good
PM2.5
Saturday Good
OZONE

Snow Depth

Station Depth Elevation
Wild Basin 0 in 9560 ft
Willow Park 8 in 10700 ft
Niwot 0 in 9910 ft
University Camp 0 in 10300 ft
Lake Irene 0 in 10700 ft

Earthquake Activity

City Distance Mag. Time & Date
No recent earthquake activity has been reported nearby.
Minimum magnitude displayed is 2.5.

Coastal Water Temperatures

Place Temperature
No Stations Reporting

Nearby Weather Stations